createdAt,value
2024-05-09T00:01:59.727Z,99.90
2024-05-09T00:04:29.644Z,99.90
2024-05-09T00:06:59.536Z,99.90
2024-05-09T00:09:32.009Z,99.90
2024-05-09T00:12:02.039Z,99.90
2024-05-09T00:14:32.350Z,99.90
2024-05-09T00:17:02.281Z,99.90
2024-05-09T00:19:32.406Z,99.90
2024-05-09T00:22:02.332Z,99.90
2024-05-09T00:24:34.893Z,99.90
2024-05-09T00:27:04.827Z,99.90
2024-05-09T00:29:34.809Z,99.90
2024-05-09T00:32:04.774Z,99.90
2024-05-09T00:34:34.977Z,99.90
2024-05-09T00:37:04.867Z,99.90
2024-05-09T00:39:37.389Z,99.90
2024-05-09T00:42:07.883Z,99.90
2024-05-09T00:44:37.844Z,99.90
2024-05-09T00:47:08.338Z,99.90
2024-05-09T00:49:38.948Z,99.90
2024-05-09T00:52:10.090Z,99.90
2024-05-09T00:54:42.641Z,99.90
2024-05-09T00:57:12.799Z,99.90
2024-05-09T00:59:43.114Z,99.90
2024-05-09T01:02:13.704Z,99.90
2024-05-09T01:04:43.752Z,99.90
2024-05-09T01:07:15.340Z,99.90
2024-05-09T01:09:50.740Z,99.90
2024-05-09T01:12:20.667Z,99.90
2024-05-09T01:14:50.738Z,99.90
2024-05-09T01:17:20.684Z,99.90
2024-05-09T01:19:50.607Z,99.90
2024-05-09T01:22:20.531Z,99.90
2024-05-09T01:24:53.039Z,99.90
2024-05-09T01:27:23.621Z,99.90
2024-05-09T01:29:53.535Z,99.90
2024-05-09T01:32:23.592Z,99.90
2024-05-09T01:34:53.645Z,99.90
2024-05-09T01:37:23.518Z,99.90
2024-05-09T01:39:55.970Z,99.90
2024-05-09T01:42:25.804Z,99.90
2024-05-09T01:44:55.650Z,99.90
2024-05-09T01:47:25.656Z,99.90
2024-05-09T01:49:56.676Z,99.90
2024-05-09T01:52:26.591Z,99.90
2024-05-09T01:55:02.009Z,99.90
2024-05-09T01:57:33.251Z,99.90
2024-05-09T02:00:03.793Z,99.90
2024-05-09T02:02:33.955Z,99.90
2024-05-09T02:05:03.992Z,99.90
2024-05-09T02:07:34.042Z,99.90
2024-05-09T02:10:13.756Z,99.90
2024-05-09T02:12:46.554Z,99.90
2024-05-09T02:15:16.480Z,99.90
2024-05-09T02:17:46.504Z,99.90
2024-05-09T02:20:23.123Z,99.90
2024-05-09T02:23:00.491Z,99.90
2024-05-09T02:25:33.411Z,99.90
2024-05-09T02:28:03.359Z,99.90
2024-05-09T02:30:39.460Z,99.90
2024-05-09T02:33:13.528Z,99.90
2024-05-09T02:35:44.821Z,99.90
2024-05-09T02:38:12.952Z,99.90
2024-05-09T02:40:45.956Z,99.90
2024-05-09T02:43:13.409Z,99.90
2024-05-09T02:45:43.338Z,99.90
2024-05-09T02:48:11.696Z,99.90
2024-05-09T02:50:44.181Z,99.90
2024-05-09T02:53:12.137Z,99.90
2024-05-09T02:55:45.842Z,99.90
2024-05-09T02:58:13.150Z,1.00
2024-05-09T03:00:43.366Z,1.00
2024-05-09T03:03:13.458Z,1.00
2024-05-09T03:05:45.620Z,1.00
2024-05-09T03:08:13.347Z,1.00
2024-05-09T03:10:45.951Z,1.00
2024-05-09T03:13:15.444Z,1.00
2024-05-09T03:15:46.324Z,1.00
2024-05-09T03:18:14.077Z,1.00
2024-05-09T03:20:44.821Z,1.00
2024-05-09T03:23:12.406Z,1.00
2024-05-09T03:25:44.969Z,1.00
2024-05-09T03:28:12.394Z,1.00
2024-05-09T03:30:43.308Z,1.00
2024-05-09T03:33:11.389Z,1.00
2024-05-09T03:35:41.980Z,1.00
2024-05-09T03:38:12.329Z,1.00
2024-05-09T03:40:51.221Z,1.00
2024-05-09T03:43:19.782Z,1.00
2024-05-09T03:45:51.650Z,1.00
2024-05-09T03:48:19.145Z,21.00
2024-05-09T03:50:49.293Z,36.80
2024-05-09T03:53:16.826Z,55.20
2024-05-09T03:55:49.478Z,80.50
2024-05-09T03:58:16.797Z,96.60
2024-05-09T04:00:46.755Z,99.90
2024-05-09T04:03:14.243Z,99.90
2024-05-09T04:05:44.972Z,99.90
2024-05-09T04:08:12.462Z,99.90
2024-05-09T04:10:43.291Z,99.90
2024-05-09T04:13:13.243Z,99.90
2024-05-09T04:15:43.140Z,99.90
2024-05-09T04:18:10.679Z,99.90
2024-05-09T04:20:41.446Z,99.90
2024-05-09T04:23:12.014Z,99.90
2024-05-09T04:25:45.680Z,99.90
2024-05-09T04:28:16.599Z,99.90
2024-05-09T04:30:46.507Z,99.90
2024-05-09T04:33:15.458Z,99.90
2024-05-09T04:35:46.076Z,99.90
2024-05-09T04:38:14.032Z,99.90
2024-05-09T04:40:44.712Z,99.90
2024-05-09T04:43:19.565Z,99.90
2024-05-09T04:45:49.585Z,99.90
2024-05-09T04:48:17.236Z,99.90
2024-05-09T04:50:47.314Z,99.90
2024-05-09T04:53:16.939Z,99.90
2024-05-09T04:55:47.110Z,99.90
2024-05-09T04:58:17.054Z,99.90
2024-05-09T05:00:47.132Z,99.90
2024-05-09T05:03:16.280Z,99.90
2024-05-09T05:05:47.134Z,1.00
2024-05-09T05:08:15.876Z,1.00
2024-05-09T05:10:48.246Z,1.00
2024-05-09T05:13:24.083Z,1.00
2024-05-09T05:15:57.533Z,1.00
2024-05-09T05:18:26.718Z,1.00
2024-05-09T05:20:59.982Z,1.00
2024-05-09T05:23:27.325Z,1.00
2024-05-09T05:25:57.491Z,1.00
2024-05-09T05:28:27.446Z,1.00
2024-05-09T05:30:57.316Z,1.00
2024-05-09T05:33:24.707Z,1.00
2024-05-09T05:35:54.705Z,1.00
2024-05-09T05:38:24.816Z,1.00
2024-05-09T05:40:57.266Z,1.00
2024-05-09T05:43:27.299Z,1.00
2024-05-09T05:45:57.191Z,1.00
2024-05-09T05:48:24.614Z,1.00
2024-05-09T05:50:54.565Z,13.20
2024-05-09T05:53:21.945Z,26.30
2024-05-09T05:55:52.023Z,26.40
2024-05-09T05:58:20.393Z,18.70
2024-05-09T06:00:54.060Z,25.60
2024-05-09T06:03:21.415Z,76.90
2024-05-09T06:05:51.463Z,91.00
2024-05-09T06:08:18.820Z,99.90
2024-05-09T06:10:48.939Z,99.90
2024-05-09T06:15:46.350Z,1.00
2024-05-09T06:18:16.297Z,99.90
2024-05-09T06:20:46.373Z,99.90
2024-05-09T06:23:14.846Z,99.90
2024-05-09T06:25:45.111Z,99.90
2024-05-09T06:28:12.485Z,99.90
2024-05-09T06:30:43.292Z,99.90
2024-05-09T06:33:13.795Z,99.90
2024-05-09T06:35:49.154Z,99.90
2024-05-09T06:38:16.483Z,99.90
2024-05-09T06:40:46.417Z,99.90
2024-05-09T06:43:15.001Z,99.90
2024-05-09T06:45:47.362Z,99.90
2024-05-09T06:50:48.395Z,99.90
2024-05-09T06:53:17.016Z,99.90
2024-05-09T06:55:47.042Z,99.90
2024-05-09T06:58:14.647Z,99.90
2024-05-09T07:00:44.820Z,99.90
2024-05-09T07:03:16.410Z,99.90
2024-05-09T07:05:50.835Z,99.90
2024-05-09T07:15:47.907Z,99.90
2024-05-09T07:18:17.822Z,99.90
2024-05-09T07:25:49.786Z,99.90
2024-05-09T07:30:48.535Z,1.00
2024-05-09T07:33:20.228Z,11.80
2024-05-09T07:38:22.050Z,21.90
2024-05-09T07:40:52.000Z,1.00
2024-05-09T07:43:19.320Z,24.20
2024-05-09T07:45:53.651Z,44.80
2024-05-09T07:53:07.568Z,49.40
2024-05-09T07:53:50.790Z,30.50
2024-05-09T07:56:24.395Z,17.60
2024-05-09T07:58:53.772Z,1.00
2024-05-09T08:01:25.854Z,1.00
2024-05-09T08:03:53.737Z,1.00
2024-05-09T08:11:26.012Z,1.00
2024-05-09T08:13:53.380Z,99.90
2024-05-09T08:16:23.594Z,1.00
2024-05-09T08:26:21.812Z,1.00
2024-05-09T08:28:49.059Z,1.00
2024-05-09T08:31:19.077Z,99.90
2024-05-09T08:33:47.666Z,1.00
2024-05-09T08:36:17.844Z,1.00
2024-05-09T08:38:45.123Z,99.90
2024-05-09T08:41:18.097Z,99.90
2024-05-09T08:43:46.200Z,99.90
2024-05-09T08:46:18.558Z,99.90
2024-05-09T08:48:48.396Z,99.90
2024-05-09T08:51:18.663Z,99.90
2024-05-09T09:11:22.068Z,99.90
2024-05-09T09:13:49.564Z,99.90
2024-05-09T09:16:19.631Z,96.50
2024-05-09T09:18:47.280Z,1.00
2024-05-09T09:21:17.253Z,1.00
2024-05-09T09:23:44.521Z,1.00
2024-05-09T09:26:21.317Z,99.90
2024-05-09T09:28:48.776Z,18.60
2024-05-09T09:31:21.101Z,1.00
2024-05-09T09:33:48.647Z,40.20
2024-05-09T09:36:19.090Z,1.00
2024-05-09T09:38:47.733Z,1.00
2024-05-09T09:41:24.594Z,99.90
2024-05-09T09:43:53.696Z,99.90
2024-05-09T09:46:24.628Z,99.90
2024-05-09T09:48:53.041Z,99.90
2024-05-09T09:51:24.242Z,99.90
2024-05-09T09:53:53.507Z,99.90
2024-05-09T09:56:26.632Z,99.90
2024-05-09T09:58:55.865Z,99.90
2024-05-09T10:01:25.934Z,99.90
2024-05-09T10:03:54.005Z,99.90
2024-05-09T10:06:25.742Z,99.90
2024-05-09T10:08:54.137Z,99.90
2024-05-09T10:11:27.320Z,99.90
2024-05-09T10:13:55.058Z,99.90
2024-05-09T10:16:25.224Z,99.90
2024-05-09T10:18:52.839Z,99.90
2024-05-09T10:21:23.473Z,99.90
2024-05-09T10:23:58.321Z,99.90
2024-05-09T10:26:37.443Z,99.90
2024-05-09T10:29:14.735Z,99.90
2024-05-09T10:31:45.928Z,99.90
2024-05-09T10:34:20.710Z,99.90
2024-05-09T10:36:55.671Z,99.90
2024-05-09T10:39:23.141Z,99.90
2024-05-09T10:41:55.726Z,99.90
2024-05-09T10:44:23.097Z,99.90
2024-05-09T10:46:54.834Z,99.90
2024-05-09T10:49:22.653Z,99.90
2024-05-09T10:51:52.666Z,99.90
2024-05-09T10:54:19.989Z,99.90
2024-05-09T10:56:58.263Z,99.90
2024-05-09T10:59:33.261Z,99.90
2024-05-09T11:02:07.810Z,1.00
2024-05-09T11:04:36.914Z,1.00
2024-05-09T11:07:11.231Z,1.00
2024-05-09T11:12:10.571Z,99.90
2024-05-09T11:19:40.221Z,99.90
2024-05-09T11:22:10.327Z,99.90
2024-05-09T11:24:37.790Z,99.90
2024-05-09T11:42:12.690Z,99.90
2024-05-09T11:44:42.614Z,96.90
2024-05-09T11:47:12.580Z,11.30
2024-05-09T11:49:39.874Z,99.90
2024-05-09T11:52:09.907Z,99.90
2024-05-09T11:54:37.572Z,99.90
2024-05-09T11:57:09.448Z,99.90
2024-05-09T11:59:36.738Z,1.00
2024-05-09T12:02:09.950Z,99.90
2024-05-09T12:04:37.513Z,1.00
2024-05-09T12:07:09.757Z,1.00
2024-05-09T12:09:38.742Z,1.00
2024-05-09T12:12:09.041Z,1.00
2024-05-09T12:14:36.400Z,99.90
2024-05-09T12:17:08.966Z,99.90
2024-05-09T12:19:37.499Z,99.40
2024-05-09T12:22:07.764Z,91.80
2024-05-09T12:24:35.226Z,99.90
2024-05-09T12:27:05.193Z,99.90
2024-05-09T12:29:33.349Z,99.90
2024-05-09T12:32:04.366Z,99.90
2024-05-09T12:34:34.379Z,99.90
2024-05-09T12:37:04.337Z,99.90
2024-05-09T12:39:31.728Z,99.90
2024-05-09T12:42:01.595Z,99.90
2024-05-09T12:44:28.835Z,99.90
2024-05-09T12:46:58.711Z,99.90
2024-05-09T12:49:27.272Z,99.90
2024-05-09T12:51:59.920Z,99.90
2024-05-09T12:54:27.163Z,99.90
2024-05-09T12:56:57.060Z,99.90
2024-05-09T12:59:24.312Z,96.00
2024-05-09T13:01:55.398Z,99.90
2024-05-09T13:04:24.041Z,1.00
2024-05-09T13:06:54.284Z,99.90
2024-05-09T13:09:24.265Z,99.90
2024-05-09T13:11:54.142Z,99.90
2024-05-09T13:14:21.525Z,99.90
2024-05-09T13:16:51.435Z,99.90
2024-05-09T13:19:18.777Z,99.90
2024-05-09T13:21:48.712Z,99.90
2024-05-09T13:24:16.026Z,99.90
2024-05-09T13:26:48.641Z,99.90
2024-05-09T13:29:15.901Z,99.90
2024-05-09T13:31:45.809Z,99.90
2024-05-09T13:34:13.204Z,99.90
2024-05-09T13:36:43.205Z,99.90
2024-05-09T13:39:10.530Z,99.90
2024-05-09T13:41:40.416Z,99.90
2024-05-09T13:44:10.335Z,99.90
2024-05-09T13:46:40.449Z,99.90
2024-05-09T13:49:09.428Z,99.90
2024-05-09T13:51:41.674Z,99.90
2024-05-09T13:54:09.064Z,99.90
2024-05-09T13:56:40.556Z,99.90
2024-05-09T13:59:10.648Z,99.90
2024-05-09T14:01:40.722Z,99.90
2024-05-09T14:04:09.876Z,99.90
2024-05-09T14:06:40.512Z,99.90
2024-05-09T14:09:09.804Z,1.00
2024-05-09T14:11:39.704Z,99.90
2024-05-09T14:14:09.618Z,1.00
2024-05-09T14:16:39.755Z,99.90
2024-05-09T14:19:07.236Z,99.90
2024-05-09T14:46:49.533Z,99.90
2024-05-09T14:49:16.914Z,99.90
2024-05-09T14:51:50.618Z,99.90
2024-05-09T14:54:17.928Z,99.90
2024-05-09T14:56:48.062Z,99.90
2024-05-09T14:59:15.401Z,99.90
2024-05-09T15:01:45.479Z,90.10
2024-05-09T15:06:48.231Z,99.90
2024-05-09T15:09:15.501Z,99.90
2024-05-09T15:11:48.170Z,99.90
2024-05-09T15:14:15.976Z,99.90
2024-05-09T15:16:45.922Z,99.90
2024-05-09T15:19:15.934Z,1.00
2024-05-09T15:21:45.920Z,30.70
2024-05-09T15:39:19.539Z,1.00
2024-05-09T15:41:49.411Z,1.00
2024-05-09T15:44:16.710Z,1.00
2024-05-09T15:46:46.582Z,1.00
2024-05-09T15:49:14.147Z,1.00
2024-05-09T15:51:44.252Z,1.00
2024-05-09T15:54:14.135Z,1.00
2024-05-09T15:56:48.869Z,1.00
2024-05-09T15:59:16.500Z,1.00
2024-05-09T16:01:46.977Z,99.90
2024-05-09T16:04:15.145Z,99.90
2024-05-09T16:06:47.934Z,99.90
2024-05-09T16:09:18.431Z,99.90
2024-05-09T16:11:48.348Z,99.90
2024-05-09T16:14:16.681Z,99.90
2024-05-09T16:16:46.823Z,99.90
2024-05-09T16:19:14.214Z,99.90
2024-05-09T16:21:44.162Z,99.90
2024-05-09T16:24:11.441Z,99.90
2024-05-09T16:26:43.942Z,99.90
2024-05-09T16:29:11.344Z,99.90
2024-05-09T16:31:41.178Z,99.90
2024-05-09T16:34:08.604Z,99.90
2024-05-09T16:36:38.568Z,99.90
2024-05-09T16:39:05.851Z,99.90
2024-05-09T16:41:36.268Z,1.00
2024-05-09T16:44:06.278Z,99.90
2024-05-09T16:46:36.722Z,1.00
2024-05-09T16:49:04.266Z,1.00
2024-05-09T16:51:34.308Z,99.90
2024-05-09T16:54:01.589Z,99.90
2024-05-09T16:56:31.493Z,99.90
2024-05-09T16:58:58.886Z,99.90
2024-05-09T17:01:31.432Z,99.90
2024-05-09T17:03:58.892Z,99.90
2024-05-09T17:06:29.030Z,99.90
2024-05-09T17:09:07.965Z,99.90
2024-05-09T17:11:38.826Z,99.90
2024-05-09T17:14:08.778Z,99.90
2024-05-09T17:16:41.414Z,99.90
2024-05-09T17:19:11.742Z,99.90
2024-05-09T17:21:39.012Z,99.90
2024-05-09T17:24:09.231Z,99.90
2024-05-09T17:26:36.733Z,99.90
2024-05-09T17:29:09.361Z,99.90
2024-05-09T17:31:40.956Z,99.90
2024-05-09T17:34:11.109Z,1.00
2024-05-09T17:36:38.557Z,99.90
2024-05-09T17:39:08.466Z,99.90
2024-05-09T17:41:35.842Z,99.90
2024-05-09T17:44:06.422Z,99.90
2024-05-09T17:46:33.889Z,99.90
2024-05-09T17:49:06.629Z,99.90
2024-05-09T17:51:35.653Z,99.90
2024-05-09T17:54:07.076Z,99.90
2024-05-09T17:56:34.330Z,99.90
2024-05-09T18:16:31.064Z,99.90
2024-05-09T18:26:29.383Z,99.90
2024-05-09T18:31:26.846Z,99.90
2024-05-09T18:38:57.310Z,1.00
2024-05-09T18:41:24.487Z,99.90
2024-05-09T18:46:22.759Z,99.90
2024-05-09T18:51:21.081Z,99.90
2024-05-09T19:08:54.806Z,1.00
2024-05-09T19:11:24.864Z,99.90
2024-05-09T19:13:54.851Z,99.90
2024-05-09T19:16:22.480Z,1.00
2024-05-09T19:18:53.918Z,99.90
2024-05-09T19:21:21.393Z,99.90
2024-05-09T19:23:52.480Z,99.90
2024-05-09T19:26:19.984Z,99.90
2024-05-09T19:28:52.646Z,99.90
2024-05-09T19:33:51.711Z,1.00
2024-05-09T19:36:19.548Z,99.90
2024-05-09T19:43:49.114Z,99.90
2024-05-09T20:08:46.890Z,64.20
2024-05-09T20:16:13.305Z,1.00
2024-05-09T20:18:43.407Z,99.90
2024-05-09T20:23:43.616Z,1.00
2024-05-09T20:26:12.950Z,99.90
2024-05-09T20:48:45.731Z,99.90
2024-05-09T20:51:13.072Z,99.90
2024-05-09T20:53:45.534Z,99.90
2024-05-09T20:56:12.874Z,99.90
2024-05-09T21:51:01.389Z,99.90
2024-05-09T22:05:58.574Z,99.90
2024-05-09T22:08:28.421Z,99.90
2024-05-09T22:10:55.859Z,99.90
2024-05-09T22:28:23.159Z,99.90
2024-05-09T22:30:51.829Z,99.90
2024-05-09T22:33:21.801Z,99.90
2024-05-09T22:35:49.243Z,99.90
2024-05-09T22:38:21.827Z,99.90
2024-05-09T22:43:24.080Z,99.90
2024-05-09T22:45:52.780Z,99.90
2024-05-09T22:48:23.690Z,99.90
2024-05-09T22:50:51.725Z,99.90
2024-05-09T22:55:53.379Z,1.00
2024-05-09T22:58:23.597Z,99.90
2024-05-09T23:00:51.364Z,1.00
2024-05-09T23:08:23.389Z,99.90
2024-05-09T23:10:51.144Z,99.90
2024-05-09T23:15:48.942Z,1.00
2024-05-09T23:18:19.071Z,99.90
2024-05-09T23:23:17.527Z,40.40
2024-05-09T23:25:49.555Z,99.90
2024-05-09T23:28:19.461Z,1.00
2024-05-09T23:33:17.341Z,99.90
2024-05-09T23:35:44.936Z,99.90
